• Join FlightAware (Why Join?)
  • Login
  • US Flag 
02:02AM EST


 

Airport Tracker/Info


-or-


 

Live Flight TrackerFlight Track Log ✈ SWA1035 ✈ 02-May-2013 ✈ KTPA - KMCI

Flight Track Log - Related Links

Times and Time Zones

All times are in EDT time to prevent confusion due to time zone crossing. See the SWA1035 flight status page for this flight to view local times or setup timezone preferences in your user account.

Time Position Orientation Groundspeed Altitude Reporting Facility
EDT Latitude Longitude Course Direction KTS MPH feet Rate Location/Type
10:54AM 28.0333 -82.5333 360° North 201 231 1,700  Level Tampa TRACON
10:55AM 28.1167 -82.5333 360° North 272 313 4,200 2,760 Climbing Tampa TRACON
10:56AM 28.1833 -82.5333 360° North 273 314 7,300 3,420 Climbing Tampa TRACON
10:57AM 28.2308 -82.5439 349° North 287 330 9,500 2,640 Climbing Jacksonville Center
10:58AM 28.3061 -82.5908 331° Northwest 293 337 11,700 2,700 Climbing Jacksonville Center
10:59AM 28.5843 -82.8126 328° Northwest  Level FlightAware Approximate
10:59AM 28.3833 -82.6567 323° Northwest 321 369 14,900  Level Jacksonville Center
11:00AM 28.4567 -82.7131 326° Northwest 340 391 17,200 2,280 Climbing Jacksonville Center
11:01AM 28.5442 -82.7886 323° Northwest 371 427 19,500 2,640 Climbing Jacksonville Center
11:02AM 28.6528 -82.8667 328° Northwest 410 472 22,500 2,280 Climbing Jacksonville Center
11:03AM 28.7406 -82.9258 329° Northwest 410 472 24,100 1,740 Climbing Jacksonville Center
11:04AM 28.8469 -83.0017 328° Northwest 430 495 26,000 1,800 Climbing Jacksonville Center
11:05AM 28.9575 -83.0778 329° Northwest 444 511 27,800 1,680 Climbing Jacksonville Center
11:06AM 29.0681 -83.1539 329° Northwest 455 524 29,400 1,560 Climbing Jacksonville Center
11:07AM 29.1783 -83.2328 328° Northwest 461 531 31,000 1,800 Climbing Jacksonville Center
11:08AM 29.2889 -83.3117 328° Northwest 466 536 33,000 1,860 Climbing Jacksonville Center
11:09AM 29.3908 -83.4025 322° Northwest 473 544 34,800 1,800 Climbing Jacksonville Center
11:10AM 29.4800 -83.5008 316° Northwest 462 532 36,700 1,500 Climbing Jacksonville Center
11:11AM 29.5694 -83.5994 316° Northwest 451 519 37,800 600 Climbing Jacksonville Center
11:12AM 29.6669 -83.7075 316° Northwest 441 507 38,000 60 Climbing Jacksonville Center
11:13AM 29.7478 -83.7944 317° Northwest 441 507 38,000  Level Jacksonville Center
11:14AM 29.8367 -83.8911 317° Northwest 441 507 38,000  Level Jacksonville Center
11:15AM 29.9256 -83.9903 316° Northwest 441 507 38,000  Level Jacksonville Center
11:16AM 30.0144 -84.0872 317° Northwest 441 507 38,000  Level Jacksonville Center
11:17AM 30.1014 -84.1819 317° Northwest 441 507 38,000  Level Jacksonville Center
11:18AM 30.1881 -84.2792 316° Northwest 435 501 38,000  Level Jacksonville Center
11:19AM 30.2744 -84.3767 316° Northwest 435 501 38,000  Level Jacksonville Center
11:20AM 30.3611 -84.4742 316° Northwest 435 501 38,000  Level Jacksonville Center
11:21AM 30.4494 -84.5744 316° Northwest 435 501 38,000  Level Jacksonville Center
11:22AM 30.5381 -84.6750 316° Northwest 435 501 38,000  Level Jacksonville Center
11:23AM 30.6242 -84.7731 316° Northwest 435 501 38,000  Level Jacksonville Center
11:24AM 30.7125 -84.8692 317° Northwest 435 501 38,000  Level Jacksonville Center
11:25AM 30.7986 -84.9675 316° Northwest 435 501 38,000  Level Jacksonville Center
11:26AM 30.8889 -85.0714 315° West 435 501 38,000  Level Jacksonville Center
11:27AM 30.9769 -85.1703 316° Northwest 440 506 38,000  Level Jacksonville Center
11:28AM 31.0647 -85.2717 315° West 440 506 38,000  Level Jacksonville Center
11:29AM 31.1528 -85.3736 315° West 440 506 38,000  Level Jacksonville Center
11:30AM 31.2406 -85.4731 316° Northwest 440 506 38,000  Level Jacksonville Center
11:31AM 31.3281 -85.5753 315° West 440 506 38,000  Level Jacksonville Center
11:33AM 31.5233 -85.8050 315° West 432 497 38,000  Level Atlanta Center
11:34AM 31.6094 -85.9042 316° Northwest 432 497 38,000  Level Atlanta Center
11:35AM 31.6975 -86.0036 316° Northwest 432 497 38,000  Level Atlanta Center
11:36AM 31.7814 -86.1056 314° West 432 497 38,000  Level Atlanta Center
11:37AM 31.8694 -86.2081 315° West 432 497 38,000  Level Atlanta Center
11:38AM 31.9575 -86.3106 315° West 432 497 38,000  Level Atlanta Center
11:39AM 32.0597 -86.4258 316° Northwest 446 513 38,000  Level Atlanta Center
11:40AM 32.1453 -86.5286 315° West 451 519 38,000  Level Atlanta Center
11:41AM 32.2328 -86.6317 315° West 445 512 38,000  Level Atlanta Center
11:42AM 32.3122 -86.7300 314° West 439 505 38,000  Level Atlanta Center
11:43AM 32.3975 -86.8308 315° West 432 497 38,000  Level Atlanta Center
11:44AM 32.4850 -86.9347 315° West 432 497 38,000  Level Atlanta Center
11:45AM 32.5661 -87.0333 314° West 432 497 38,000  Level Atlanta Center
11:46AM 32.6511 -87.1350 315° West 432 497 38,000  Level Atlanta Center
11:47AM 32.7383 -87.2367 316° Northwest 432 497 38,000  Level Atlanta Center
11:48AM 32.8192 -87.3386 313° West 432 497 38,000  Level Atlanta Center
11:49AM 32.9083 -87.4383 317° Northwest 432 497 38,000  Level Atlanta Center
11:51AM 33.0447 -87.6189 312° West 437 503 38,000  Level Memphis Center
11:52AM 33.1303 -87.7203 315° West 437 503 38,000  Level Memphis Center
11:53AM 33.2139 -87.8244 314° West 437 503 38,000  Level Memphis Center
11:54AM 33.2953 -87.9267 314° West 437 503 38,000  Level Memphis Center
11:55AM 33.3806 -88.0286 315° West 437 503 38,000  Level Memphis Center
11:56AM 33.4619 -88.1311 314° West 437 503 38,000  Level Memphis Center
11:57AM 33.5472 -88.2361 314° West 437 503 38,000  Level Memphis Center
11:58AM 33.6283 -88.3389 313° West 437 503 38,000  Level Memphis Center
11:59AM 33.7111 -88.4419 314° West 437 503 38,000  Level Memphis Center
12:00PM 33.7942 -88.5450 314° West 437 503 38,000  Level Memphis Center
12:01PM 33.8772 -88.6508 313° West 437 503 38,000  Level Memphis Center
12:02PM 33.9600 -88.7569 313° West 437 503 38,000  Level Memphis Center
12:03PM 34.0342 -88.8458 315° West 437 503 38,000  Level Memphis Center
12:04PM 34.1189 -88.9522 314° West 430 495 38,000  Level Memphis Center
12:05PM 34.2014 -89.0564 314° West 422 486 38,000  Level Memphis Center
12:06PM 34.2817 -89.1606 313° West 422 486 38,000  Level Memphis Center
12:07PM 34.3642 -89.2675 313° West 422 486 38,000  Level Memphis Center
12:08PM 34.4464 -89.3697 314° West 422 486 38,000  Level Memphis Center
12:09PM 34.5306 -89.4822 312° West 422 486 38,000  Level Memphis Center
12:10PM 34.6128 -89.5875 314° West 422 486 38,000  Level Memphis Center
12:11PM 34.6906 -89.6903 313° West 417 480 38,000  Level Memphis Center
12:12PM 34.7703 -89.7933 313° West 410 472 38,000  Level Memphis Center
12:13PM 34.8500 -89.8942 314° West 415 478 38,000  Level Memphis Center
12:14PM 34.9297 -89.9975 313° West 441 507 38,000  Level Memphis Center
12:15PM 35.0092 -90.1011 313° West 426 490 38,000  Level Memphis Center
12:16PM 35.0908 -90.2072 313° West 426 490 38,000  Level Memphis Center
12:17PM 35.1681 -90.3114 312° West 421 484 38,000  Level Memphis Center
12:18PM 35.2556 -90.4258 313° West 421 484 38,000  Level Memphis Center
12:19PM 35.3328 -90.5300 312° West 421 484 38,000  Level Memphis Center
12:20PM 35.4139 -90.6347 314° West 415 478 38,000  Level Memphis Center
12:21PM 35.4908 -90.7394 312° West 415 478 38,000  Level Memphis Center
12:22PM 35.5717 -90.8444 313° West 420 483 38,000  Level Memphis Center
12:23PM 35.6506 -90.9547 311° West 420 483 38,000 420 Level Memphis Center
12:24PM 35.7125 -91.0472 310° West 420 483 38,900 960 Climbing Memphis Center
12:25PM 35.7911 -91.1531 312° West 409 471 40,000 540 Climbing Memphis Center
12:26PM 35.8678 -91.2561 313° West 416 479 40,000  Level Memphis Center
12:27PM 35.9481 -91.3647 312° West 416 479 40,000  Level Memphis Center
12:28PM 36.0244 -91.4683 312° West 416 479 40,000  Level Memphis Center
12:29PM 36.1006 -91.5719 312° West 409 471 40,000  Level Memphis Center
12:30PM 36.1747 -91.6786 311° West 409 471 40,000  Level Memphis Center
12:31PM 36.2528 -91.7828 313° West 409 471 40,000  Level Memphis Center
12:32PM 36.3308 -91.8844 314° West 409 471 40,000  Level Memphis Center
12:33PM 36.4064 -91.9892 312° West 414 476 40,000  Level Memphis Center
12:35PM 36.5942 -92.2494 312° West 415 478 40,000  Level Kansas City Center
12:36PM 36.6717 -92.3622 311° West 419 482 40,000  Level Kansas City Center
12:37PM 36.7500 -92.4694 312° West 417 480 40,000  Level Kansas City Center
12:38PM 36.8283 -92.5789 312° West 418 481 40,000  Level Kansas City Center
12:39PM 36.9053 -92.6892 311° West 419 482 40,000 -420 Level Kansas City Center
12:40PM 36.9819 -92.7983 311° West 416 479 39,200 -1,020 Descending Kansas City Center
12:41PM 37.0750 -92.9306 311° West 419 482 38,000 -1,080 Descending Kansas City Center
12:42PM 37.1553 -93.0444 312° West 431 496 37,100 -960 Descending Kansas City Center
12:43PM 37.2375 -93.1622 311° West 443 510 36,100 -1,020 Descending Kansas City Center
12:45PM 37.3206 -93.2828 311° West 454 522 35,100 -1,020 Descending Kansas City Center
12:46PM 37.4264 -93.3739 326° Northwest 457 526 34,100 -900 Descending Kansas City Center
12:47PM 37.5431 -93.4378 337° Northwest 453 521 33,300 -1,020 Descending Kansas City Center
12:48PM 37.6589 -93.5031 336° Northwest 454 522 32,000 -1,500 Descending Kansas City Center
12:49PM 37.7750 -93.5672 336° Northwest 453 521 30,200 -1,800 Descending Kansas City Center
12:50PM 37.8928 -93.6325 336° Northwest 456 525 28,400 -2,220 Descending Kansas City Center
12:51PM 38.0278 -93.7094 336° Northwest 444 511 25,700 -2,460 Descending Kansas City Center
12:52PM 38.1361 -93.7706 336° Northwest 429 494 23,400 -2,220 Descending Kansas City Center
12:53PM 38.2419 -93.8297 336° Northwest 418 481 21,200 -2,100 Descending Kansas City Center
12:54PM 38.3442 -93.8864 337° Northwest 404 465 19,100 -1,860 Descending Kansas City Center
12:55PM 38.4406 -93.9439 335° Northwest 388 447 17,400 -1,980 Descending Kansas City Center
12:57PM 38.6336 -94.0550 336° Northwest 371 427 13,000 -1,800 Descending Kansas City Center
12:58PM 38.7278 -94.1311 328° Northwest 357 411 12,000 -1,020 Descending Kansas City Center
12:59PM 38.8000 -94.2061 321° Northwest 348 400 11,000 -1,020 Descending Kansas City Center
01:00PM 38.8769 -94.2992 317° Northwest 333 383 10,000 -1,080 Descending Kansas City Center
01:01PM 38.9142 -94.3861 299° West 292 336 8,800 -1,380 Descending Kansas City Center
01:02PM 38.9586 -94.4828 301° West 282 325 7,200 -1,380 Descending Kansas City Center
01:03PM 38.9922 -94.5644 298° West 271 312 6,000 -1,080 Descending Kansas City Center
01:04PM 39.0328 -94.6564 300° West 266 306 5,000 -540 Descending Kansas City Center
01:05PM 39.0667 -94.7322 300° West 256 295 5,000 -300 Level Kansas City Center
01:06PM 39.1164 -94.7592 337° Northwest 201 231 4,500 -780 Descending Kansas City Center
01:07PM 39.1678 -94.7431 14° North 168 193 3,400 -840 Descending Kansas City Center
01:08PM 39.1978 -94.7339 13° North 120 138 2,800 -660 Descending Kansas City Center
01:09PM 39.2311 -94.7244 12° North 109 125 2,100 -720 Descending Kansas City Center
01:10PM 39.2625 -94.7161 12° North 119 137 1,400 -540 Descending Kansas City Center
01:11PM 39.3008 -94.7053 12° North 121 139 1,000 -420 Descending Kansas City Center